Time;durP1;ratioP1;P1;durP2;ratioP2;P2;SDS_P1;SDS_P2;PMS_P1;PMS_P2;Temp;Humidity;BMP_temperature;BMP_pressure;BME280_temperature;BME280_humidity;BME280_pressure;Samples;Min_cycle;Max_cycle;Signal;HPM_P1;HPM_P2
2021/11/03 00:01:35;;;;;;;1.23;0.80;;;4.80;99.90;;;;;;5033786;28;20045;-80
2021/11/03 00:04:01;;;;;;;0.60;0.60;;;4.80;99.90;;;;;;5012122;28;20089;-80
2021/11/03 00:06:28;;;;;;;0.60;0.60;;;4.80;99.90;;;;;;5020166;28;20017;-80
2021/11/03 00:08:58;;;;;;;1.02;0.50;;;4.70;99.90;;;;;;5036301;28;20048;-80
2021/11/03 00:11:24;;;;;;;0.65;0.60;;;4.70;99.90;;;;;;5030731;28;20081;-80
2021/11/03 00:13:50;;;;;;;0.80;0.60;;;4.70;99.90;;;;;;5029501;28;20112;-80
2021/11/03 00:16:16;;;;;;;1.02;0.70;;;4.70;99.90;;;;;;5012656;28;20030;-80
2021/11/03 00:18:42;;;;;;;0.88;0.80;;;4.70;99.90;;;;;;5030292;28;20029;-80
2021/11/03 00:21:08;;;;;;;1.40;0.88;;;4.60;99.90;;;;;;5012014;28;20026;-79
2021/11/03 00:23:34;;;;;;;1.67;0.93;;;4.60;99.90;;;;;;5030487;28;20073;-80
2021/11/03 00:26:00;;;;;;;1.42;0.70;;;4.60;99.90;;;;;;5029249;28;20061;-79
2021/11/03 00:28:26;;;;;;;0.57;0.52;;;4.50;99.90;;;;;;5012535;28;20406;-80
2021/11/03 00:30:56;;;;;;;1.05;0.50;;;4.50;99.90;;;;;;5030836;28;20053;-79
2021/11/03 00:33:24;;;;;;;1.10;0.75;;;4.50;99.90;;;;;;5025306;28;20026;-79
2021/11/03 00:35:51;;;;;;;1.42;1.05;;;4.50;99.90;;;;;;5010211;28;20037;-79
2021/11/03 00:38:17;;;;;;;0.55;0.55;;;4.50;99.90;;;;;;4996859;28;20018;-80
2021/11/03 00:40:43;;;;;;;0.50;0.50;;;4.50;99.90;;;;;;5013144;28;20030;-80
2021/11/03 00:43:08;;;;;;;1.55;0.90;;;4.50;99.90;;;;;;5013049;28;20037;-80
2021/11/03 00:45:34;;;;;;;0.70;0.50;;;4.50;99.90;;;;;;5030371;28;20502;-80
2021/11/03 00:48:00;;;;;;;1.20;0.60;;;4.50;99.90;;;;;;5033183;28;20030;-79
2021/11/03 00:50:26;;;;;;;0.63;0.50;;;4.50;99.90;;;;;;4994695;28;20146;-79
2021/11/03 00:52:53;;;;;;;0.60;0.50;;;4.50;99.90;;;;;;5011205;28;20015;-80
2021/11/03 00:55:19;;;;;;;0.47;0.47;;;4.50;99.90;;;;;;5010134;28;20062;-80
2021/11/03 00:57:45;;;;;;;0.80;0.50;;;4.50;99.90;;;;;;4991238;28;20019;-79
2021/11/03 01:00:13;;;;;;;0.63;0.50;;;4.50;99.90;;;;;;5021309;28;20113;-79
2021/11/03 01:02:39;;;;;;;1.10;0.65;;;4.50;99.90;;;;;;5001282;28;20025;-79
2021/11/03 01:05:07;;;;;;;0.95;0.60;;;4.50;99.90;;;;;;4993331;28;20031;-80
2021/11/03 01:07:32;;;;;;;1.00;0.60;;;4.60;99.90;;;;;;4992250;28;20042;-79
2021/11/03 01:09:58;;;;;;;1.48;0.43;;;4.60;99.90;;;;;;5010822;28;20395;-80
2021/11/03 01:12:24;;;;;;;0.90;0.50;;;4.60;99.90;;;;;;4993670;28;20049;-80
2021/11/03 01:14:50;;;;;;;0.40;0.40;;;4.50;99.90;;;;;;4993123;28;20038;-80
2021/11/03 01:17:16;;;;;;;1.40;0.80;;;4.60;99.90;;;;;;4992459;28;20023;-79
2021/11/03 01:19:41;;;;;;;0.50;0.50;;;4.50;99.90;;;;;;5010499;28;20022;-81
2021/11/03 01:22:07;;;;;;;0.40;0.40;;;4.50;99.90;;;;;;5010713;28;20027;-80
2021/11/03 01:24:33;;;;;;;0.30;0.30;;;4.50;99.90;;;;;;4993358;28;20057;-80
2021/11/03 01:26:59;;;;;;;2.17;0.60;;;4.40;99.90;;;;;;4993764;28;20054;-80
2021/11/03 01:29:25;;;;;;;1.48;0.45;;;4.40;99.90;;;;;;5010624;28;20084;-79
2021/11/03 01:31:50;;;;;;;1.17;0.60;;;4.40;99.90;;;;;;5018488;28;20026;-79
2021/11/03 01:34:16;;;;;;;0.32;0.30;;;4.30;99.90;;;;;;5005764;28;20049;-79
2021/11/03 01:36:42;;;;;;;0.43;0.43;;;4.30;99.90;;;;;;5035554;28;20032;-80
2021/11/03 01:39:09;;;;;;;0.30;0.30;;;4.30;99.90;;;;;;5030990;28;20037;-80
2021/11/03 01:41:36;;;;;;;0.20;0.20;;;4.20;99.90;;;;;;5011839;28;20050;-80
2021/11/03 01:44:07;;;;;;;0.28;0.28;;;4.20;99.90;;;;;;5011987;28;20037;-79
2021/11/03 01:46:42;;;;;;;0.30;0.30;;;4.20;99.90;;;;;;5034573;28;20006;-80
2021/11/03 01:49:22;;;;;;;2.22;0.40;;;4.20;99.90;;;;;;5037395;28;20030;-79
2021/11/03 01:51:59;;;;;;;0.43;0.40;;;4.20;99.90;;;;;;5032681;28;20036;-80
2021/11/03 01:54:50;;;;;;;0.28;0.20;;;4.20;99.90;;;;;;5015618;28;20034;-80
2021/11/03 01:57:20;;;;;;;1.05;0.32;;;4.20;99.90;;;;;;5032894;28;20029;-80
2021/11/03 01:59:49;;;;;;;0.30;0.30;;;4.20;99.90;;;;;;5016518;28;20118;-80
2021/11/03 02:02:19;;;;;;;0.63;0.30;;;4.20;99.90;;;;;;5019230;28;20057;-80
2021/11/03 02:04:46;;;;;;;0.60;0.60;;;4.20;99.90;;;;;;5010932;28;20120;-80
2021/11/03 02:07:17;;;;;;;0.52;0.40;;;4.20;99.90;;;;;;5016276;28;20037;-79
2021/11/03 02:09:43;;;;;;;0.70;0.20;;;4.20;99.90;;;;;;5032447;28;20036;-79
2021/11/03 02:12:26;;;;;;;0.30;0.30;;;4.20;99.90;;;;;;5004937;28;20038;-78
2021/11/03 02:14:53;;;;;;;0.35;0.32;;;4.20;99.90;;;;;;4994997;28;20180;-79
2021/11/03 02:17:20;;;;;;;0.60;0.52;;;4.20;99.90;;;;;;4994732;28;20041;-80
2021/11/03 02:19:47;;;;;;;1.17;0.30;;;4.20;99.90;;;;;;4994732;28;20026;-79
2021/11/03 02:22:30;;;;;;;0.20;0.15;;;4.20;99.90;;;;;;5011858;28;20431;-79
2021/11/03 02:25:05;;;;;;;0.93;0.30;;;4.20;99.90;;;;;;4995449;28;20091;-79
2021/11/03 02:27:33;;;;;;;1.05;0.30;;;4.20;99.90;;;;;;4995592;28;20122;-81
2021/11/03 02:29:59;;;;;;;0.20;0.20;;;4.20;99.90;;;;;;5012186;28;20028;-80
2021/11/03 02:32:29;;;;;;;0.43;0.22;;;4.20;99.90;;;;;;5010474;28;20028;-78
2021/11/03 02:34:56;;;;;;;0.20;0.20;;;4.20;99.90;;;;;;5018908;28;20030;-79
2021/11/03 02:37:27;;;;;;;0.25;0.25;;;4.20;99.90;;;;;;5011618;28;20082;-78
2021/11/03 02:40:26;;;;;;;0.43;0.20;;;4.20;99.90;;;;;;4994513;28;20022;-78
2021/11/03 02:43:02;;;;;;;0.40;0.40;;;4.20;99.90;;;;;;5000808;28;20391;-80
2021/11/03 02:45:52;;;;;;;0.30;0.20;;;4.20;99.90;;;;;;5014843;28;20105;-80
2021/11/03 02:48:20;;;;;;;0.88;0.43;;;4.10;99.90;;;;;;5014799;28;20489;-81
2021/11/03 02:51:09;;;;;;;0.57;0.30;;;4.10;99.90;;;;;;5014933;28;20126;-80
2021/11/03 02:53:46;;;;;;;0.68;0.30;;;4.10;99.90;;;;;;5014563;28;20042;-80
2021/11/03 02:56:19;;;;;;;1.45;0.30;;;4.00;99.90;;;;;;5015126;28;20056;-79
2021/11/03 02:58:45;;;;;;;0.40;0.40;;;4.00;99.90;;;;;;5013756;28;20022;-80
2021/11/03 03:01:20;;;;;;;1.38;0.40;;;4.00;99.90;;;;;;5011833;28;20026;-80
2021/11/03 03:03:46;;;;;;;0.40;0.40;;;3.90;99.90;;;;;;5006343;28;20018;-80
2021/11/03 03:06:26;;;;;;;2.50;0.32;;;3.90;99.90;;;;;;5013117;28;20021;-79
2021/11/03 03:08:53;;;;;;;0.38;0.38;;;3.80;99.90;;;;;;5029717;28;20041;-78
2021/11/03 03:11:21;;;;;;;1.17;0.40;;;3.80;99.90;;;;;;5013909;28;20036;-79
2021/11/03 03:13:49;;;;;;;0.73;0.50;;;3.80;99.90;;;;;;5015433;28;20030;-79
2021/11/03 03:16:15;;;;;;;1.20;0.88;;;3.80;99.90;;;;;;5013475;28;20049;-78
2021/11/03 03:18:42;;;;;;;0.50;0.45;;;3.80;99.90;;;;;;5031452;28;20026;-78
2021/11/03 03:21:07;;;;;;;0.70;0.50;;;3.80;99.90;;;;;;5014089;28;20041;-78
2021/11/03 03:23:33;;;;;;;0.68;0.50;;;3.80;99.90;;;;;;5030745;28;20077;-78
2021/11/03 03:26:00;;;;;;;0.70;0.70;;;3.80;99.90;;;;;;5011029;28;20022;-78
2021/11/03 03:28:26;;;;;;;0.85;0.75;;;3.80;99.90;;;;;;4994681;28;20082;-79
2021/11/03 03:30:52;;;;;;;2.35;0.82;;;3.70;99.90;;;;;;4997714;28;20396;-79
2021/11/03 03:33:18;;;;;;;0.98;0.70;;;3.70;99.90;;;;;;5026738;28;20050;-80
2021/11/03 03:35:44;;;;;;;0.55;0.55;;;3.70;99.90;;;;;;5027547;28;20049;-79
2021/11/03 03:38:10;;;;;;;0.45;0.45;;;3.70;99.90;;;;;;5013177;28;20022;-80
2021/11/03 03:40:35;;;;;;;0.80;0.60;;;3.70;99.90;;;;;;5031301;28;20033;-79
2021/11/03 03:43:01;;;;;;;0.70;0.70;;;3.60;99.90;;;;;;5030674;28;20030;-79
2021/11/03 03:45:28;;;;;;;0.60;0.55;;;3.70;99.90;;;;;;5012296;28;20021;-80
2021/11/03 03:47:53;;;;;;;1.45;0.98;;;3.60;99.90;;;;;;5013809;28;20017;-79
2021/11/03 03:50:19;;;;;;;0.88;0.80;;;3.70;99.90;;;;;;5012641;28;20081;-79
2021/11/03 03:52:45;;;;;;;1.33;0.80;;;3.70;99.90;;;;;;5012839;28;20411;-79
2021/11/03 03:55:11;;;;;;;0.68;0.68;;;3.70;99.90;;;;;;5019072;28;20072;-81
2021/11/03 03:57:37;;;;;;;0.77;0.77;;;3.70;99.90;;;;;;5010715;28;20030;-80
2021/11/03 04:00:12;;;;;;;0.70;0.70;;;3.70;99.90;;;;;;5009956;28;20030;-81
2021/11/03 04:02:38;;;;;;;1.40;1.00;;;3.70;99.90;;;;;;5010416;28;20046;-80
2021/11/03 04:05:05;;;;;;;1.00;0.90;;;3.70;99.90;;;;;;5005955;28;20037;-79
2021/11/03 04:07:31;;;;;;;0.90;0.75;;;3.70;99.90;;;;;;4993430;28;20100;-79
2021/11/03 04:09:56;;;;;;;1.10;1.00;;;3.70;99.90;;;;;;4993262;28;20026;-79
2021/11/03 04:12:22;;;;;;;1.27;1.02;;;3.70;99.90;;;;;;5011318;28;20093;-80
2021/11/03 04:14:48;;;;;;;1.13;1.00;;;3.70;99.90;;;;;;4996968;28;20037;-79
2021/11/03 04:17:14;;;;;;;1.30;1.20;;;3.70;99.90;;;;;;5030416;28;20148;-80
2021/11/03 04:19:40;;;;;;;1.70;1.40;;;3.70;99.90;;;;;;5012698;28;20064;-80
2021/11/03 04:22:06;;;;;;;3.60;1.60;;;3.80;99.90;;;;;;5012885;28;20032;-80
2021/11/03 04:24:32;;;;;;;2.10;1.67;;;3.80;99.90;;;;;;5013781;28;20064;-82
2021/11/03 04:26:58;;;;;;;2.40;2.05;;;3.80;99.90;;;;;;5012905;28;20033;-80
2021/11/03 04:29:24;;;;;;;2.13;1.92;;;3.70;99.90;;;;;;5030927;28;20029;-80
2021/11/03 04:31:51;;;;;;;3.25;2.55;;;3.80;99.90;;;;;;5006567;28;20026;-80
2021/11/03 04:34:17;;;;;;;4.78;2.97;;;3.80;99.90;;;;;;5013788;28;20022;-80
2021/11/03 04:36:43;;;;;;;2.45;2.15;;;3.80;99.90;;;;;;5019365;28;20045;-80
2021/11/03 04:39:10;;;;;;;3.63;2.47;;;3.90;99.90;;;;;;5030625;28;20078;-79
2021/11/03 04:41:36;;;;;;;3.35;3.03;;;3.90;99.90;;;;;;5026219;28;20022;-80
2021/11/03 04:44:02;;;;;;;3.67;2.63;;;3.90;99.90;;;;;;5027105;28;20041;-80
2021/11/03 04:46:27;;;;;;;3.50;3.20;;;3.90;99.90;;;;;;5012797;28;20083;-80
2021/11/03 04:48:53;;;;;;;3.63;2.75;;;3.90;99.90;;;;;;5024861;28;20045;-80
2021/11/03 04:51:20;;;;;;;5.50;3.10;;;3.90;99.90;;;;;;5008028;28;20102;-81
2021/11/03 04:53:46;;;;;;;8.05;3.15;;;3.90;99.90;;;;;;5026764;28;20045;-81
2021/11/03 04:56:13;;;;;;;3.08;2.75;;;3.90;99.90;;;;;;5021853;28;20054;-82
2021/11/03 04:58:39;;;;;;;4.53;2.72;;;3.90;99.90;;;;;;5006215;28;20061;-80
2021/11/03 05:01:05;;;;;;;3.90;2.65;;;3.90;99.90;;;;;;5010809;28;20030;-80
2021/11/03 05:03:32;;;;;;;3.70;3.15;;;3.90;99.90;;;;;;5019950;28;20332;-81
2021/11/03 05:05:58;;;;;;;6.00;2.90;;;3.90;99.90;;;;;;5008566;28;20089;-80
2021/11/03 05:08:25;;;;;;;3.40;2.80;;;3.90;99.90;;;;;;5008687;28;20044;-80
2021/11/03 05:10:51;;;;;;;5.55;3.42;;;3.90;99.90;;;;;;5009029;28;20113;-79
2021/11/03 05:13:17;;;;;;;3.10;2.80;;;3.90;99.90;;;;;;5051729;22;20318;-79
2021/11/03 05:15:42;;;;;;;2.97;2.63;;;3.90;99.90;;;;;;5025806;28;20033;-79
2021/11/03 05:18:08;;;;;;;3.83;3.15;;;3.90;99.90;;;;;;5039074;28;20032;-79
2021/11/03 05:20:34;;;;;;;4.88;2.83;;;3.90;99.90;;;;;;5045855;28;20025;-79
2021/11/03 05:23:02;;;;;;;3.95;2.90;;;3.90;99.90;;;;;;5045436;28;20025;-79
2021/11/03 05:25:28;;;;;;;3.17;2.75;;;4.00;99.90;;;;;;5044471;28;20032;-80
2021/11/03 05:27:55;;;;;;;3.78;2.88;;;3.90;99.90;;;;;;5030311;28;20062;-80
2021/11/03 05:30:25;;;;;;;3.20;2.90;;;3.90;99.90;;;;;;5055087;28;20017;-80
2021/11/03 05:32:50;;;;;;;3.65;2.92;;;4.00;99.90;;;;;;5022935;28;20021;-82
2021/11/03 05:35:17;;;;;;;4.40;3.47;;;3.90;99.90;;;;;;5015815;28;20025;-83
2021/11/03 05:37:43;;;;;;;2.50;2.30;;;3.90;99.90;;;;;;5030039;28;20048;-80
2021/11/03 05:40:13;;;;;;;3.05;2.47;;;3.90;99.90;;;;;;5013106;28;20026;-80
2021/11/03 05:42:39;;;;;;;3.47;2.80;;;3.90;99.90;;;;;;5006009;28;20026;-81
2021/11/03 05:45:06;;;;;;;4.63;3.30;;;3.90;99.90;;;;;;5025798;28;20032;-80
2021/11/03 05:47:32;;;;;;;3.28;2.55;;;3.90;99.90;;;;;;5025895;28;20026;-81
2021/11/03 05:49:58;;;;;;;2.72;2.53;;;3.90;99.90;;;;;;5020247;28;20398;-80
2021/11/03 05:52:25;;;;;;;3.47;2.72;;;3.90;99.90;;;;;;5030058;28;20034;-80
2021/11/03 05:54:51;;;;;;;6.50;2.92;;;4.00;99.90;;;;;;5031949;28;20053;-81
2021/11/03 05:57:24;;;;;;;3.25;2.65;;;3.90;99.90;;;;;;5024363;28;20036;-81
2021/11/03 05:59:51;;;;;;;3.10;2.80;;;3.90;99.90;;;;;;5033006;28;20040;-80
2021/11/03 06:02:17;;;;;;;5.00;3.45;;;3.90;99.90;;;;;;5034500;28;20021;-80
2021/11/03 06:04:43;;;;;;;4.63;3.03;;;3.90;99.90;;;;;;5050868;28;20104;-80
2021/11/03 06:07:10;;;;;;;3.95;2.90;;;3.90;99.90;;;;;;5033778;28;20048;-80
2021/11/03 06:09:36;;;;;;;4.05;3.03;;;3.90;99.90;;;;;;5038739;28;20117;-80
2021/11/03 06:12:02;;;;;;;4.00;3.42;;;3.90;99.90;;;;;;5037816;28;20109;-79
2021/11/03 06:14:28;;;;;;;4.75;3.35;;;4.00;99.90;;;;;;5048573;28;20037;-79
2021/11/03 06:16:54;;;;;;;3.42;2.85;;;4.00;99.90;;;;;;5053314;28;20088;-80
2021/11/03 06:19:20;;;;;;;4.00;3.20;;;4.00;99.90;;;;;;5047515;28;20025;-80
2021/11/03 06:21:46;;;;;;;5.68;3.97;;;4.00;99.90;;;;;;5014264;28;20087;-80
2021/11/03 06:24:12;;;;;;;6.40;3.25;;;4.00;99.90;;;;;;5033785;28;20025;-79
2021/11/03 06:26:38;;;;;;;5.70;3.72;;;4.10;99.90;;;;;;5031810;28;20025;-81
2021/11/03 06:29:06;;;;;;;3.78;3.15;;;4.10;99.90;;;;;;5011546;28;20105;-81
2021/11/03 06:31:33;;;;;;;4.93;3.72;;;4.10;99.90;;;;;;5017632;28;20029;-81
2021/11/03 06:33:59;;;;;;;4.80;3.42;;;4.10;99.90;;;;;;5034201;28;20030;-82
2021/11/03 06:36:28;;;;;;;4.60;2.85;;;4.10;99.90;;;;;;5013866;28;20026;-82
2021/11/03 06:38:54;;;;;;;3.78;2.90;;;4.20;99.90;;;;;;5013512;28;20030;-83
2021/11/03 06:41:21;;;;;;;4.38;3.10;;;4.20;99.90;;;;;;5018465;28;20025;-81
2021/11/03 06:43:48;;;;;;;4.40;3.53;;;4.20;99.90;;;;;;5051398;28;20025;-82
2021/11/03 06:46:14;;;;;;;4.53;2.97;;;4.20;99.90;;;;;;5027603;28;20029;-82
2021/11/03 06:48:40;;;;;;;4.18;3.00;;;4.30;99.90;;;;;;5027890;28;20029;-82
2021/11/03 06:51:07;;;;;;;4.43;3.00;;;4.20;99.90;;;;;;5045299;28;20037;-81
2021/11/03 06:53:33;;;;;;;7.07;2.92;;;4.20;99.90;;;;;;5035500;28;20029;-81
2021/11/03 06:56:00;;;;;;;4.35;2.88;;;4.20;99.90;;;;;;5054140;28;20034;-83
2021/11/03 06:58:28;;;;;;;3.78;3.05;;;4.30;99.90;;;;;;5029908;28;20393;-81
2021/11/03 07:00:54;;;;;;;5.00;2.78;;;4.30;99.90;;;;;;5046272;28;20036;-81
2021/11/03 07:03:22;;;;;;;4.63;2.75;;;4.30;99.90;;;;;;5038224;28;20014;-80
2021/11/03 07:05:49;;;;;;;5.43;2.80;;;4.30;99.90;;;;;;5056478;28;20021;-80
2021/11/03 07:08:16;;;;;;;3.10;2.80;;;4.40;99.90;;;;;;5052126;28;20540;-82
2021/11/03 07:10:45;;;;;;;3.92;3.00;;;4.40;99.90;;;;;;5044929;28;20024;-81
2021/11/03 07:13:12;;;;;;;4.53;2.72;;;4.50;99.90;;;;;;5047454;28;20049;-81
2021/11/03 07:15:38;;;;;;;4.45;3.28;;;4.50;99.90;;;;;;5049033;28;20032;-82
2021/11/03 07:18:06;;;;;;;4.78;2.97;;;4.60;99.90;;;;;;5050278;28;20021;-83
2021/11/03 07:20:32;;;;;;;4.38;2.60;;;4.60;99.90;;;;;;5053020;28;20485;-82
2021/11/03 07:22:58;;;;;;;2.50;2.30;;;4.70;99.90;;;;;;5050150;28;20413;-82
2021/11/03 07:25:25;;;;;;;4.22;2.90;;;4.80;99.90;;;;;;5035279;28;20030;-82
2021/11/03 07:27:53;;;;;;;3.28;2.70;;;4.90;99.90;;;;;;5052207;28;20041;-82
2021/11/03 07:30:21;;;;;;;3.67;2.40;;;4.90;99.90;;;;;;5036624;28;20021;-83
2021/11/03 07:32:48;;;;;;;3.13;2.80;;;5.00;99.90;;;;;;5035764;28;20037;-81
2021/11/03 07:35:14;;;;;;;3.33;2.58;;;5.00;99.90;;;;;;5016206;28;20030;-82
2021/11/03 07:37:40;;;;;;;5.25;3.22;;;5.00;99.90;;;;;;5034566;28;20076;-81
2021/11/03 07:40:13;;;;;;;3.15;2.45;;;5.00;99.90;;;;;;5031256;28;20026;-81
2021/11/03 07:42:39;;;;;;;5.25;2.47;;;5.10;99.90;;;;;;5030072;28;20025;-81
2021/11/03 07:45:06;;;;;;;11.25;2.95;;;5.10;99.90;;;;;;5030205;28;20423;-81
2021/11/03 07:47:32;;;;;;;3.88;2.75;;;5.20;99.90;;;;;;5027319;28;20029;-81
2021/11/03 07:49:58;;;;;;;2.55;2.35;;;5.20;99.90;;;;;;5025655;28;20042;-82
2021/11/03 07:52:24;;;;;;;3.13;2.05;;;5.30;99.90;;;;;;5026990;28;20026;-81
2021/11/03 07:54:50;;;;;;;2.30;2.10;;;5.40;99.90;;;;;;5008744;28;20041;-82
2021/11/03 07:57:16;;;;;;;2.42;1.88;;;5.60;99.90;;;;;;5024115;28;20021;-82
2021/11/03 07:59:42;;;;;;;2.17;1.92;;;5.80;99.90;;;;;;5009590;28;20037;-82
2021/11/03 08:02:09;;;;;;;3.17;2.00;;;5.80;99.90;;;;;;5037161;28;20030;-82
2021/11/03 08:04:35;;;;;;;2.70;1.73;;;5.70;99.90;;;;;;5045653;28;20366;-82
2021/11/03 08:07:01;;;;;;;3.20;1.77;;;5.80;99.90;;;;;;5043857;28;20089;-82
2021/11/03 08:09:27;;;;;;;2.60;1.80;;;5.80;99.90;;;;;;5032092;28;20034;-81
2021/11/03 08:11:58;;;;;;;8.88;1.90;;;5.80;99.90;;;;;;5029903;28;20097;-81
2021/11/03 08:14:29;;;;;;;2.78;1.80;;;5.90;99.90;;;;;;5012320;28;20076;-82
2021/11/03 08:17:02;;;;;;;2.65;1.58;;;6.00;99.90;;;;;;5027253;28;20104;-83
2021/11/03 08:19:45;;;;;;;2.22;1.60;;;6.10;99.90;;;;;;5014797;28;20018;-81
2021/11/03 08:22:12;;;;;;;6.32;1.90;;;6.30;99.90;;;;;;5032574;28;20026;-80
2021/11/03 08:24:39;;;;;;;2.15;1.73;;;6.30;99.90;;;;;;5010158;28;20167;-81
2021/11/03 08:27:05;;;;;;;1.60;1.50;;;6.40;99.90;;;;;;5029396;28;20021;-81
2021/11/03 08:29:31;;;;;;;1.85;1.30;;;6.40;99.90;;;;;;5030614;28;20088;-82
2021/11/03 08:31:58;;;;;;;2.40;1.40;;;6.60;99.90;;;;;;5013990;28;20093;-82
2021/11/03 08:34:30;;;;;;;2.05;1.30;;;6.70;99.90;;;;;;5036725;28;20026;-80
2021/11/03 08:36:59;;;;;;;1.00;0.90;;;6.80;99.90;;;;;;5010136;28;20029;-81
2021/11/03 08:39:25;;;;;;;1.17;1.08;;;7.00;99.90;;;;;;5030584;28;20018;-81
2021/11/03 08:41:52;;;;;;;1.48;1.30;;;7.10;99.50;;;;;;5013730;28;20036;-82
2021/11/03 08:44:18;;;;;;;1.33;1.23;;;7.20;99.20;;;;;;5012150;28;20075;-84
2021/11/03 08:46:45;;;;;;;1.42;1.20;;;7.30;98.60;;;;;;5031188;28;20021;-82
2021/11/03 08:49:11;;;;;;;2.08;1.30;;;7.40;97.40;;;;;;5028645;28;20090;-84
2021/11/03 08:51:40;;;;;;;2.58;1.30;;;7.40;97.80;;;;;;5027546;28;20030;-83
2021/11/03 08:54:07;;;;;;;1.73;1.42;;;7.60;97.80;;;;;;5029531;28;20018;-82
2021/11/03 08:56:36;;;;;;;2.67;1.40;;;7.70;96.90;;;;;;5015244;28;20521;-81
2021/11/03 08:59:03;;;;;;;3.78;1.60;;;7.60;96.80;;;;;;5017912;28;20072;-83
2021/11/03 09:01:30;;;;;;;1.70;1.60;;;7.70;96.10;;;;;;5018392;28;20010;-81
2021/11/03 09:03:56;;;;;;;1.70;1.50;;;7.60;96.30;;;;;;5044903;28;20045;-83
2021/11/03 09:06:22;;;;;;;1.25;1.15;;;7.60;96.80;;;;;;5036303;28;20085;-82
2021/11/03 09:08:50;;;;;;;2.70;1.35;;;7.90;96.70;;;;;;5028992;28;20026;-82
2021/11/03 09:11:18;;;;;;;1.70;1.20;;;7.90;96.00;;;;;;5056911;28;20113;-82
2021/11/03 09:13:43;;;;;;;1.15;1.02;;;8.00;96.00;;;;;;5055100;28;20100;-82
2021/11/03 09:16:10;;;;;;;2.47;1.33;;;8.10;96.10;;;;;;5039289;28;20033;-82
2021/11/03 09:18:42;;;;;;;2.08;1.23;;;8.20;95.20;;;;;;5041344;28;20013;-82
2021/11/03 09:21:09;;;;;;;2.00;1.15;;;8.10;95.30;;;;;;5054242;28;20036;-82
2021/11/03 09:23:42;;;;;;;1.35;1.00;;;8.20;95.50;;;;;;5042180;28;20030;-82
2021/11/03 09:26:08;;;;;;;3.67;1.20;;;8.40;95.30;;;;;;5019141;28;20014;-82
2021/11/03 09:28:34;;;;;;;1.50;1.05;;;8.50;94.80;;;;;;5019651;28;20029;-82
2021/11/03 09:31:05;;;;;;;1.48;1.20;;;8.60;94.60;;;;;;5018504;28;20049;-82
2021/11/03 09:33:34;;;;;;;5.05;1.20;;;8.70;94.30;;;;;;5020376;28;20029;-81
2021/11/03 09:36:01;;;;;;;6.30;1.40;;;8.70;94.30;;;;;;5030508;28;20026;-80
2021/11/03 09:38:28;;;;;;;2.65;1.35;;;8.60;93.90;;;;;;5032484;28;20046;-81
2021/11/03 09:41:08;;;;;;;1.27;1.10;;;8.70;94.10;;;;;;5013249;28;20022;-82
2021/11/03 09:43:57;;;;;;;2.22;1.20;;;8.80;93.80;;;;;;5018619;28;20025;-80
2021/11/03 09:46:37;;;;;;;4.47;1.25;;;8.80;93.60;;;;;;5034891;28;20414;-81
2021/11/03 09:49:13;;;;;;;1.98;1.00;;;8.80;93.60;;;;;;5055119;28;20052;-81
2021/11/03 09:51:47;;;;;;;3.47;1.10;;;8.90;93.40;;;;;;5037314;28;20093;-81
2021/11/03 09:54:26;;;;;;;0.68;0.68;;;9.10;93.10;;;;;;5059231;28;20073;-82
2021/11/03 09:57:07;;;;;;;3.65;1.00;;;9.20;92.80;;;;;;5056116;28;20071;-82
2021/11/03 09:59:44;;;;;;;1.23;0.73;;;9.20;92.40;;;;;;5038979;28;20034;-81
2021/11/03 10:02:48;;;;;;;1.55;0.70;;;9.30;91.80;;;;;;5038491;28;20017;-81
2021/11/03 10:05:22;;;;;;;0.75;0.63;;;9.40;91.30;;;;;;5056174;28;20470;-83
2021/11/03 10:08:26;;;;;;;0.60;0.60;;;9.50;91.00;;;;;;5037818;28;20053;-83
2021/11/03 10:10:57;;;;;;;1.75;0.90;;;9.70;90.80;;;;;;4994665;28;20033;-83
2021/11/03 10:13:29;;;;;;;1.85;0.80;;;9.60;90.50;;;;;;5046068;28;20049;-83
2021/11/03 10:16:14;;;;;;;;;;;9.50;90.50;;;;;;5034332;28;20039;-84
2021/11/03 10:19:07;;;;;;;1.75;1.05;;;9.30;90.70;;;;;;5032854;28;19893;-84
2021/11/03 10:21:44;;;;;;;1.42;0.77;;;9.30;91.20;;;;;;5049347;28;20061;-84
2021/11/03 10:24:13;;;;;;;2.08;0.88;;;9.40;91.10;;;;;;5038798;28;20090;-84
2021/11/03 10:26:54;;;;;;;2.25;1.00;;;9.40;90.60;;;;;;5034795;28;20025;-84
2021/11/03 10:29:25;;;;;;;1.75;0.80;;;9.40;90.20;;;;;;5012184;28;20041;-84
2021/11/03 10:32:01;;;;;;;2.90;0.90;;;9.20;90.50;;;;;;5023454;28;20285;-84
2021/11/03 10:34:44;;;;;;;1.83;0.95;;;9.30;90.80;;;;;;5048389;28;20026;-84
2021/11/03 10:37:11;;;;;;;1.55;0.90;;;9.20;90.80;;;;;;5029938;28;20499;-83
2021/11/03 10:39:55;;;;;;;2.05;1.20;;;9.20;90.90;;;;;;5025895;28;20215;-85
2021/11/03 10:42:41;;;;;;;4.18;1.02;;;9.20;90.70;;;;;;5027392;28;20018;-82
2021/11/03 10:45:16;;;;;;;3.10;1.35;;;9.20;90.80;;;;;;5000266;28;20066;-84
2021/11/03 10:47:47;;;;;;;1.05;0.98;;;9.30;90.50;;;;;;5022370;28;20030;-84
2021/11/03 10:50:36;;;;;;;4.82;1.25;;;9.30;90.70;;;;;;5007297;28;20100;-85
2021/11/03 10:53:16;;;;;;;1.80;1.45;;;9.20;90.50;;;;;;5031445;28;20105;-84
2021/11/03 10:55:49;;;;;;;2.80;1.50;;;9.10;90.50;;;;;;5037277;28;20038;-83
2021/11/03 10:58:20;;;;;;;3.13;1.45;;;9.10;91.00;;;;;;5032225;28;20029;-85
2021/11/03 11:01:03;;;;;;;1.17;0.90;;;9.10;91.10;;;;;;5042630;28;20018;-84
2021/11/03 11:03:34;;;;;;;3.92;1.20;;;9.20;91.20;;;;;;5013870;28;20038;-83
2021/11/03 11:06:34;;;;;;;3.03;1.13;;;9.30;91.00;;;;;;5037530;28;20084;-84
2021/11/03 11:09:06;;;;;;;2.45;0.98;;;9.40;90.80;;;;;;5028441;28;20021;-84
2021/11/03 11:11:35;;;;;;;2.15;1.10;;;9.40;90.60;;;;;;5008009;28;20044;-84
2021/11/03 11:14:05;;;;;;;2.78;1.33;;;9.50;90.60;;;;;;5055981;23;20037;-82
2021/11/03 11:16:43;;;;;;;3.20;1.40;;;9.50;90.00;;;;;;5026406;28;20032;-81
2021/11/03 11:19:37;;;;;;;1.35;1.25;;;9.30;89.80;;;;;;5031515;28;20018;-81
2021/11/03 11:22:34;;;;;;;3.00;1.40;;;9.20;90.10;;;;;;5039242;28;20370;-82
2021/11/03 11:25:18;;;;;;;1.27;1.05;;;9.10;90.20;;;;;;4985081;28;20113;-81
2021/11/03 11:27:57;;;;;;;4.38;1.25;;;9.10;90.50;;;;;;5020589;28;20041;-82
2021/11/03 11:30:28;;;;;;;4.47;1.33;;;9.20;90.50;;;;;;4994746;28;20345;-82
2021/11/03 11:32:59;;;;;;;1.33;0.90;;;9.30;90.30;;;;;;4994038;28;20475;-81
2021/11/03 11:35:57;;;;;;;1.87;1.13;;;9.20;90.30;;;;;;5008900;28;20030;-82
2021/11/03 11:38:42;;;;;;;2.17;1.30;;;9.20;89.70;;;;;;5007874;28;20038;-81
2021/11/03 11:41:17;;;;;;;2.03;1.20;;;9.20;90.20;;;;;;5010820;28;20037;-81
2021/11/03 11:43:49;;;;;;;1.77;1.00;;;9.20;90.40;;;;;;5001012;28;20093;-81
2021/11/03 11:46:25;;;;;;;1.50;1.20;;;9.30;90.50;;;;;;5004653;28;20021;-81
2021/11/03 11:48:56;;;;;;;1.25;1.15;;;9.30;90.40;;;;;;5010827;28;20084;-82
2021/11/03 11:51:31;;;;;;;1.52;1.05;;;9.30;90.30;;;;;;5010577;28;20030;-81
2021/11/03 11:53:56;;;;;;;3.80;1.35;;;9.30;90.50;;;;;;5027664;28;20041;-81
2021/11/03 11:56:22;;;;;;;1.85;1.20;;;9.30;90.30;;;;;;5018261;28;20030;-82
2021/11/03 11:59:19;;;;;;;1.67;1.00;;;9.30;90.50;;;;;;4990807;28;20037;-82
2021/11/03 12:02:15;;;;;;;2.00;1.05;;;9.30;90.40;;;;;;4991073;28;20039;-82
2021/11/03 12:04:41;;;;;;;1.52;1.23;;;9.30;90.20;;;;;;4990211;28;20046;-81
2021/11/03 12:07:19;;;;;;;1.63;1.10;;;9.30;90.10;;;;;;4991760;28;20034;-80
2021/11/03 12:10:11;;;;;;;3.25;1.08;;;9.30;90.20;;;;;;5007731;28;20187;-79
2021/11/03 12:13:05;;;;;;;1.10;1.00;;;9.30;90.10;;;;;;4980082;28;20058;-80
2021/11/03 12:15:50;;;;;;;3.65;1.20;;;9.30;89.60;;;;;;4995487;28;20086;-81
2021/11/03 12:18:24;;;;;;;1.70;0.95;;;9.30;89.40;;;;;;5006675;28;20396;-80
2021/11/03 12:21:02;;;;;;;1.60;1.08;;;9.40;89.60;;;;;;5006962;28;20030;-80
2021/11/03 12:23:42;;;;;;;3.92;1.40;;;9.50;89.30;;;;;;5004990;28;20091;-80
2021/11/03 12:26:26;;;;;;;1.35;1.05;;;9.80;89.30;;;;;;4989374;28;20026;-81
2021/11/03 12:29:04;;;;;;;2.65;1.35;;;9.90;88.10;;;;;;4988855;28;20121;-80
2021/11/03 12:31:49;;;;;;;2.05;1.20;;;10.10;87.60;;;;;;4988435;28;20173;-81
2021/11/03 12:34:18;;;;;;;3.47;1.33;;;10.20;86.70;;;;;;4990186;28;20061;-80
2021/11/03 12:36:49;;;;;;;2.42;1.17;;;10.10;87.00;;;;;;4989225;28;20046;-80
2021/11/03 12:39:33;;;;;;;1.65;1.08;;;10.10;88.20;;;;;;4994820;28;20022;-80
2021/11/03 12:42:20;;;;;;;3.45;1.17;;;10.00;88.00;;;;;;4996334;28;20042;-81
2021/11/03 12:45:18;;;;;;;2.17;1.48;;;10.10;89.20;;;;;;5006714;28;20022;-80
2021/11/03 12:47:49;;;;;;;3.65;1.20;;;10.00;89.30;;;;;;5006605;28;20061;-80
2021/11/03 12:50:21;;;;;;;2.33;1.02;;;10.00;89.60;;;;;;5006331;28;20093;-79
2021/11/03 12:52:50;;;;;;;2.50;0.93;;;10.10;89.70;;;;;;5005808;28;20022;-79
2021/11/03 12:55:28;;;;;;;5.60;1.13;;;10.00;88.30;;;;;;5006965;28;20148;-80
2021/11/03 12:57:55;;;;;;;0.88;0.70;;;10.00;88.70;;;;;;4988126;28;20033;-79
2021/11/03 13:00:23;;;;;;;0.95;0.88;;;10.00;89.30;;;;;;5005751;28;20057;-80
2021/11/03 13:03:04;;;;;;;2.25;1.25;;;10.00;89.50;;;;;;4988645;28;20050;-80
2021/11/03 13:05:45;;;;;;;0.68;0.68;;;10.00;89.10;;;;;;5006209;28;20048;-80
2021/11/03 13:08:39;;;;;;;2.08;1.05;;;10.00;89.40;;;;;;4989560;28;20023;-80
2021/11/03 13:11:11;;;;;;;4.15;1.30;;;10.00;89.70;;;;;;4988397;28;20038;-80
2021/11/03 13:13:46;;;;;;;2.00;1.25;;;9.90;89.80;;;;;;4988425;28;20042;-80
2021/11/03 13:16:31;;;;;;;3.90;1.17;;;9.90;90.20;;;;;;5007253;28;20030;-80